createdAt,value
2023-01-21T00:00:45.616Z,40.67
2023-01-21T00:03:15.714Z,44.50
2023-01-21T00:05:45.583Z,46.47
2023-01-21T00:08:15.479Z,37.67
2023-01-21T00:10:46.487Z,29.90
2023-01-21T00:13:16.321Z,35.80
2023-01-21T00:15:46.849Z,47.17
2023-01-21T00:18:16.815Z,38.05
2023-01-21T00:20:48.217Z,34.78
2023-01-21T00:23:18.200Z,40.75
2023-01-21T00:25:47.955Z,37.25
2023-01-21T00:28:17.850Z,40.03
2023-01-21T00:30:48.303Z,33.45
2023-01-21T00:33:19.149Z,36.20
2023-01-21T00:35:48.947Z,42.38
2023-01-21T00:38:18.813Z,41.58
2023-01-21T00:40:48.624Z,51.53
2023-01-21T00:43:18.467Z,44.53
2023-01-21T00:45:48.388Z,40.70
2023-01-21T00:48:18.310Z,45.45
2023-01-21T00:50:48.260Z,45.10
2023-01-21T00:53:18.129Z,38.30
2023-01-21T00:55:48.159Z,42.20
2023-01-21T00:58:18.093Z,49.78
2023-01-21T01:00:48.173Z,47.00
2023-01-21T01:03:18.056Z,48.70
2023-01-21T01:05:47.963Z,49.97
2023-01-21T01:08:17.883Z,50.08
2023-01-21T01:10:47.779Z,51.42
2023-01-21T01:13:17.653Z,48.67
2023-01-21T01:15:49.229Z,51.38
2023-01-21T01:18:19.050Z,51.25
2023-01-21T01:20:49.849Z,45.95
2023-01-21T01:23:20.298Z,44.72
2023-01-21T01:26:01.277Z,43.28
2023-01-21T01:28:31.598Z,49.17
2023-01-21T01:31:01.760Z,41.97
2023-01-21T01:33:31.611Z,47.30
2023-01-21T01:36:11.433Z,47.05
2023-01-21T01:38:41.281Z,48.92
2023-01-21T01:41:15.415Z,60.75
2023-01-21T01:44:07.000Z,53.92
2023-01-21T01:46:38.597Z,50.65
2023-01-21T01:49:15.590Z,53.60
2023-01-21T01:52:06.569Z,54.75
2023-01-21T01:54:41.597Z,61.95
2023-01-21T01:57:14.362Z,58.13
2023-01-21T01:59:46.772Z,59.97
2023-01-21T02:02:20.515Z,67.57
2023-01-21T02:04:56.301Z,62.47
2023-01-21T02:07:28.830Z,61.60
2023-01-21T02:09:59.106Z,62.38
2023-01-21T02:12:29.669Z,63.63
2023-01-21T02:14:59.558Z,67.97
2023-01-21T02:18:08.454Z,61.53
2023-01-21T02:21:17.470Z,54.58
2023-01-21T02:24:22.019Z,53.95
2023-01-21T02:27:31.445Z,61.05
2023-01-21T02:30:40.598Z,51.40
2023-01-21T02:33:37.321Z,52.70
2023-01-21T02:36:25.441Z,51.00
2023-01-21T02:39:23.838Z,50.78
2023-01-21T02:42:19.566Z,57.92
2023-01-21T02:45:16.921Z,52.92
2023-01-21T02:48:08.324Z,53.80
2023-01-21T02:50:48.592Z,52.47
2023-01-21T02:53:38.196Z,51.50
2023-01-21T02:56:14.864Z,54.08
2023-01-21T02:58:49.912Z,44.42
2023-01-21T03:01:58.696Z,44.00
2023-01-21T03:04:54.728Z,42.20
2023-01-21T03:07:37.489Z,47.08
2023-01-21T03:10:33.998Z,45.65
2023-01-21T03:13:10.380Z,47.50
2023-01-21T03:16:07.802Z,44.05
2023-01-21T03:18:43.009Z,47.33
2023-01-21T03:21:21.617Z,39.13
2023-01-21T03:23:55.070Z,50.60
2023-01-21T03:26:43.796Z,48.95
2023-01-21T03:29:20.025Z,57.60
2023-01-21T03:31:54.113Z,45.50
2023-01-21T03:34:27.560Z,46.33
2023-01-21T03:37:07.659Z,47.25
2023-01-21T03:40:17.887Z,56.25
2023-01-21T03:42:55.572Z,45.42
2023-01-21T03:45:51.218Z,44.65
2023-01-21T03:48:42.995Z,48.70
2023-01-21T03:51:17.129Z,48.85
2023-01-21T03:53:47.635Z,46.03
2023-01-21T03:56:17.625Z,43.60
2023-01-21T03:58:47.461Z,46.67
2023-01-21T04:01:17.437Z,48.13
2023-01-21T04:03:47.484Z,48.03
2023-01-21T04:06:19.732Z,46.78
2023-01-21T04:08:49.765Z,62.38
2023-01-21T04:11:20.170Z,84.30
2023-01-21T04:13:50.695Z,121.35
2023-01-21T04:16:20.727Z,139.52
2023-01-21T04:18:50.698Z,132.75
2023-01-21T04:21:20.704Z,128.52
2023-01-21T04:23:50.582Z,103.32
2023-01-21T04:26:20.483Z,94.20
2023-01-21T04:28:50.389Z,112.20
2023-01-21T04:31:20.203Z,102.80
2023-01-21T04:33:50.178Z,113.18
2023-01-21T04:36:20.022Z,100.63
2023-01-21T04:38:49.856Z,95.88
2023-01-21T04:41:19.645Z,104.95
2023-01-21T04:43:49.572Z,89.63
2023-01-21T04:46:19.766Z,94.93
2023-01-21T04:48:49.528Z,91.15
2023-01-21T04:51:19.458Z,73.47
2023-01-21T04:53:49.215Z,85.68
2023-01-21T04:56:19.119Z,50.75
2023-01-21T04:58:48.966Z,44.20
2023-01-21T05:01:18.770Z,42.83
2023-01-21T05:03:48.652Z,40.03
2023-01-21T05:06:18.601Z,43.63
2023-01-21T05:08:48.636Z,33.28
2023-01-21T05:11:21.031Z,30.65
2023-01-21T05:13:50.943Z,27.95
2023-01-21T05:16:21.169Z,30.98
2023-01-21T05:18:51.253Z,30.33
2023-01-21T05:21:21.302Z,31.50
2023-01-21T05:23:51.103Z,26.25
2023-01-21T05:26:21.306Z,25.35
2023-01-21T05:28:51.231Z,25.58
2023-01-21T05:31:21.205Z,26.40
2023-01-21T05:33:51.162Z,22.65
2023-01-21T05:36:21.059Z,26.77
2023-01-21T05:38:51.052Z,24.80
2023-01-21T05:41:21.164Z,22.50
2023-01-21T05:43:50.983Z,31.20
2023-01-21T05:46:21.075Z,23.92
2023-01-21T05:48:51.841Z,27.40
2023-01-21T05:51:21.667Z,21.05
2023-01-21T05:53:51.486Z,24.77
2023-01-21T05:56:21.364Z,21.60
2023-01-21T05:58:51.216Z,25.98
2023-01-21T06:01:21.197Z,28.15
2023-01-21T06:03:51.067Z,24.15
2023-01-21T06:06:20.790Z,31.90
2023-01-21T06:08:50.855Z,26.52
2023-01-21T06:11:20.842Z,26.63
2023-01-21T06:13:50.585Z,23.48
2023-01-21T06:16:21.111Z,25.67
2023-01-21T06:18:51.256Z,24.13
2023-01-21T06:21:21.048Z,27.50
2023-01-21T06:23:54.038Z,25.20
2023-01-21T06:26:25.008Z,26.33
2023-01-21T06:28:57.763Z,23.38
2023-01-21T06:31:27.780Z,24.17
2023-01-21T06:33:57.645Z,23.27
2023-01-21T06:36:27.355Z,21.48
2023-01-21T06:38:57.229Z,25.13
2023-01-21T06:41:26.827Z,26.20
2023-01-21T06:43:56.653Z,23.92
2023-01-21T06:46:26.733Z,24.30
2023-01-21T06:48:56.632Z,22.65
2023-01-21T06:51:26.611Z,23.95
2023-01-21T06:53:56.911Z,22.90
2023-01-21T06:56:26.885Z,24.20
2023-01-21T06:58:56.713Z,25.70
2023-01-21T07:01:26.680Z,22.77
2023-01-21T07:03:56.446Z,27.95
2023-01-21T07:06:27.269Z,24.10
2023-01-21T07:08:57.306Z,27.33
2023-01-21T07:11:27.145Z,23.27
2023-01-21T07:13:56.911Z,26.83
2023-01-21T07:16:27.533Z,21.92
2023-01-21T07:18:57.365Z,26.60
2023-01-21T07:21:28.506Z,22.00
2023-01-21T07:23:58.913Z,24.05
2023-01-21T07:26:28.931Z,27.63
2023-01-21T07:29:00.995Z,27.88
2023-01-21T07:31:31.658Z,22.92
2023-01-21T07:34:01.621Z,21.55
2023-01-21T07:36:31.633Z,22.13
2023-01-21T07:39:02.431Z,20.38
2023-01-21T07:41:32.193Z,23.15
2023-01-21T07:44:01.909Z,21.73
2023-01-21T07:46:31.948Z,18.15
2023-01-21T07:49:01.788Z,21.23
2023-01-21T07:51:31.814Z,19.67
2023-01-21T07:54:01.777Z,25.30
2023-01-21T07:56:31.597Z,22.70
2023-01-21T07:59:01.363Z,29.40
2023-01-21T08:01:33.228Z,19.95
2023-01-21T08:04:03.525Z,17.35
2023-01-21T08:06:33.281Z,20.30
2023-01-21T08:09:03.399Z,22.40
2023-01-21T08:11:33.190Z,17.05
2023-01-21T08:14:03.123Z,21.02
2023-01-21T08:16:33.860Z,24.13
2023-01-21T08:19:03.695Z,19.02
2023-01-21T08:21:33.632Z,20.90
2023-01-21T08:24:03.532Z,18.65
2023-01-21T08:26:33.492Z,16.40
2023-01-21T08:29:03.366Z,22.23
2023-01-21T08:31:33.299Z,17.17
2023-01-21T08:34:03.298Z,17.48
2023-01-21T08:36:33.227Z,16.30
2023-01-21T08:39:08.152Z,16.55
2023-01-21T08:41:38.318Z,22.25
2023-01-21T08:44:08.633Z,19.05
2023-01-21T08:46:38.503Z,17.90
2023-01-21T08:49:08.671Z,15.77
2023-01-21T08:51:38.493Z,26.33
2023-01-21T08:54:08.395Z,29.30
2023-01-21T08:56:38.389Z,16.52
2023-01-21T08:59:08.943Z,19.40
2023-01-21T09:01:42.522Z,15.52
2023-01-21T09:04:12.373Z,17.35
2023-01-21T09:06:42.275Z,17.08
2023-01-21T09:09:14.056Z,115.15
2023-01-21T09:11:44.409Z,18.00
2023-01-21T09:14:14.327Z,16.65
2023-01-21T09:16:44.915Z,16.40
2023-01-21T09:19:14.764Z,17.85
2023-01-21T09:21:44.685Z,17.30
2023-01-21T09:24:14.493Z,17.15
2023-01-21T09:26:47.525Z,16.63
2023-01-21T09:29:17.973Z,19.33
2023-01-21T09:31:47.957Z,21.50
2023-01-21T09:34:17.913Z,17.67
2023-01-21T09:36:47.797Z,17.98
2023-01-21T09:39:17.552Z,20.63
2023-01-21T09:41:53.396Z,19.45
2023-01-21T09:44:33.776Z,20.50
2023-01-21T09:47:25.652Z,21.50
2023-01-21T09:49:59.700Z,19.35
2023-01-21T09:52:41.629Z,17.92
2023-01-21T09:55:34.471Z,22.15
2023-01-21T09:58:37.496Z,18.92
2023-01-21T10:01:24.699Z,18.05
2023-01-21T10:04:33.846Z,19.70
2023-01-21T10:07:17.764Z,20.95
2023-01-21T10:10:26.933Z,16.70
2023-01-21T10:13:35.809Z,18.83
2023-01-21T10:16:33.611Z,20.88
2023-01-21T10:19:06.726Z,16.92
2023-01-21T10:21:53.592Z,17.88
2023-01-21T10:24:33.466Z,22.17
2023-01-21T10:27:03.373Z,16.70
2023-01-21T10:29:33.464Z,17.40
2023-01-21T10:32:07.139Z,20.23
2023-01-21T10:34:44.590Z,19.58
2023-01-21T10:37:39.620Z,16.13
2023-01-21T10:40:48.523Z,19.92
2023-01-21T10:43:45.124Z,19.95
2023-01-21T10:46:44.269Z,24.48
2023-01-21T10:49:40.396Z,19.27
2023-01-21T10:52:20.173Z,21.38
2023-01-21T10:55:29.136Z,19.90
2023-01-21T10:58:13.080Z,20.58
2023-01-21T11:00:49.401Z,25.50
2023-01-21T11:03:43.771Z,20.58
2023-01-21T11:06:16.076Z,20.48
2023-01-21T11:08:50.550Z,25.40
2023-01-21T11:11:30.891Z,20.13
2023-01-21T11:14:01.387Z,24.02
2023-01-21T11:16:47.601Z,18.88
2023-01-21T11:19:27.812Z,20.15
2023-01-21T11:22:19.916Z,22.50
2023-01-21T11:24:51.759Z,24.25
2023-01-21T11:27:40.171Z,23.17
2023-01-21T11:30:48.410Z,22.42
2023-01-21T11:33:28.210Z,23.27
2023-01-21T11:36:00.171Z,20.33
2023-01-21T11:38:38.504Z,20.23
2023-01-21T11:41:27.999Z,21.48
2023-01-21T11:44:18.420Z,24.90
2023-01-21T11:46:48.671Z,23.10
2023-01-21T11:49:25.170Z,25.55
2023-01-21T11:52:17.108Z,22.98
2023-01-21T11:54:47.066Z,19.05
2023-01-21T11:57:31.560Z,23.23
2023-01-21T12:00:09.644Z,22.55
2023-01-21T12:05:27.969Z,26.33
2023-01-21T12:07:59.399Z,20.10
2023-01-21T12:10:48.883Z,23.33
2023-01-21T12:13:59.832Z,25.42
2023-01-21T12:17:08.936Z,20.25
2023-01-21T12:20:02.102Z,34.22
2023-01-21T12:22:58.576Z,29.40
2023-01-21T12:26:07.513Z,41.15
2023-01-21T12:29:09.606Z,30.98
2023-01-21T12:31:53.922Z,27.92
2023-01-21T12:34:39.518Z,29.75
2023-01-21T12:37:44.721Z,35.38
2023-01-21T12:40:34.957Z,32.20
2023-01-21T12:43:44.015Z,32.97
2023-01-21T12:46:22.989Z,31.27
2023-01-21T12:49:19.350Z,28.42
2023-01-21T12:52:10.168Z,37.75
2023-01-21T12:54:59.768Z,35.83
2023-01-21T12:57:52.891Z,42.17
2023-01-21T13:00:48.056Z,49.20
2023-01-21T13:03:57.161Z,48.47
2023-01-21T13:06:54.321Z,41.47
2023-01-21T13:10:03.611Z,46.13
2023-01-21T13:12:35.753Z,44.17
2023-01-21T13:15:32.329Z,49.75
2023-01-21T13:18:06.053Z,51.53
2023-01-21T13:20:44.038Z,44.63
2023-01-21T13:23:44.277Z,52.65
2023-01-21T13:26:45.576Z,54.72
2023-01-21T13:29:28.343Z,53.65
2023-01-21T13:32:37.233Z,52.10
2023-01-21T13:35:46.229Z,60.53
2023-01-21T13:38:39.785Z,71.75
2023-01-21T13:41:33.626Z,69.85
2023-01-21T13:44:42.581Z,61.80
2023-01-21T13:47:48.020Z,62.85
2023-01-21T13:50:51.070Z,57.30
2023-01-21T13:53:55.811Z,63.47
2023-01-21T13:56:51.094Z,61.30
2023-01-21T13:59:38.086Z,65.97
2023-01-21T14:02:17.838Z,67.43
2023-01-21T14:05:14.424Z,61.22
2023-01-21T14:07:57.554Z,60.47
2023-01-21T14:10:55.812Z,56.83
2023-01-21T14:14:04.740Z,56.30
2023-01-21T14:16:59.121Z,65.80
2023-01-21T14:19:59.835Z,65.22
2023-01-21T14:23:04.810Z,61.17
2023-01-21T14:25:53.643Z,59.45
2023-01-21T14:28:53.866Z,62.30
2023-01-21T14:31:50.313Z,59.10
2023-01-21T14:34:32.253Z,65.45
2023-01-21T14:37:35.300Z,58.58
2023-01-21T14:40:21.730Z,67.28
2023-01-21T14:42:56.529Z,66.95
2023-01-21T14:45:47.484Z,70.22
2023-01-21T14:48:40.567Z,59.15
2023-01-21T14:51:22.604Z,61.03
2023-01-21T14:54:04.144Z,59.90
2023-01-21T14:56:35.798Z,62.78
2023-01-21T14:59:27.002Z,60.95
2023-01-21T15:02:21.952Z,58.88
2023-01-21T15:05:19.312Z,62.40
2023-01-21T15:07:53.416Z,60.80
2023-01-21T15:10:32.868Z,68.93
2023-01-21T15:13:07.186Z,63.65
2023-01-21T15:15:43.739Z,53.75
2023-01-21T15:18:36.854Z,61.38
2023-01-21T15:21:36.905Z,57.17
2023-01-21T15:24:35.065Z,51.28
2023-01-21T15:27:27.651Z,53.00
2023-01-21T15:30:37.460Z,53.65
2023-01-21T15:33:17.054Z,52.53
2023-01-21T15:35:47.362Z,60.13
2023-01-21T15:38:19.239Z,57.65
2023-01-21T15:40:59.911Z,50.50
2023-01-21T15:43:56.599Z,46.72
2023-01-21T15:46:49.557Z,48.28
2023-01-21T15:49:58.371Z,46.38
2023-01-21T15:52:39.338Z,53.55
2023-01-21T15:55:39.135Z,62.95
2023-01-21T15:58:36.728Z,47.15
2023-01-21T16:01:31.301Z,49.92
2023-01-21T16:04:25.459Z,44.13
2023-01-21T16:07:27.404Z,47.28
2023-01-21T16:10:36.280Z,47.38
2023-01-21T16:13:35.349Z,48.33
2023-01-21T16:16:33.128Z,49.95
2023-01-21T16:19:13.874Z,47.55
2023-01-21T16:21:47.629Z,52.40
2023-01-21T16:24:20.828Z,49.45
2023-01-21T16:26:51.326Z,53.75
2023-01-21T16:29:21.169Z,72.97
2023-01-21T16:32:02.433Z,83.72
2023-01-21T16:34:43.967Z,111.47
2023-01-21T16:37:17.324Z,87.53
2023-01-21T16:39:47.376Z,77.68
2023-01-21T16:42:33.482Z,56.80
2023-01-21T16:45:08.107Z,65.82
2023-01-21T16:47:38.985Z,88.80
2023-01-21T16:50:22.649Z,84.88
2023-01-21T16:52:53.469Z,64.53
2023-01-21T16:55:27.416Z,69.13
2023-01-21T16:57:59.433Z,55.15
2023-01-21T17:00:32.875Z,52.55
2023-01-21T17:03:02.964Z,83.63
2023-01-21T17:05:37.690Z,95.75
2023-01-21T17:08:13.091Z,94.28
2023-01-21T17:11:12.116Z,102.82
2023-01-21T17:13:45.411Z,97.53
2023-01-21T17:16:28.723Z,110.32
2023-01-21T17:19:02.150Z,116.63
2023-01-21T17:21:41.963Z,98.65
2023-01-21T17:24:33.709Z,114.30
2023-01-21T17:27:13.518Z,98.13
2023-01-21T17:29:45.319Z,96.40
2023-01-21T17:32:35.191Z,94.50
2023-01-21T17:35:25.142Z,99.38
2023-01-21T17:38:01.425Z,107.32
2023-01-21T17:40:56.437Z,106.65
2023-01-21T17:43:27.852Z,125.38
2023-01-21T17:45:59.704Z,123.47
2023-01-21T17:48:36.383Z,91.85
2023-01-21T17:51:25.591Z,109.50
2023-01-21T17:54:03.905Z,104.70
2023-01-21T17:56:41.991Z,95.68
2023-01-21T17:59:46.473Z,115.55
2023-01-21T18:02:23.411Z,97.30
2023-01-21T18:04:53.312Z,88.03
2023-01-21T18:07:29.360Z,96.70
2023-01-21T18:10:04.483Z,93.88
2023-01-21T18:12:34.170Z,101.32
2023-01-21T18:15:04.432Z,88.90
2023-01-21T18:17:34.579Z,87.72
2023-01-21T18:20:04.263Z,76.82
2023-01-21T18:22:34.983Z,82.97
2023-01-21T18:25:06.927Z,77.80
2023-01-21T18:27:38.289Z,77.05
2023-01-21T18:30:21.092Z,72.60
2023-01-21T18:32:51.599Z,68.63
2023-01-21T18:35:25.264Z,68.38
2023-01-21T18:37:55.390Z,74.10
2023-01-21T18:40:26.346Z,65.72
2023-01-21T18:42:57.910Z,85.32
2023-01-21T18:45:31.580Z,63.55
2023-01-21T18:48:01.444Z,65.35
2023-01-21T18:50:32.622Z,79.80
2023-01-21T18:53:02.601Z,76.30
2023-01-21T18:55:32.349Z,72.72
2023-01-21T18:58:02.276Z,70.30
2023-01-21T19:00:35.503Z,70.43
2023-01-21T19:03:05.295Z,55.33
2023-01-21T19:05:41.382Z,52.70
2023-01-21T19:08:17.632Z,55.35
2023-01-21T19:10:47.636Z,60.58
2023-01-21T19:13:17.431Z,53.20
2023-01-21T19:15:48.352Z,59.65
2023-01-21T19:18:19.336Z,55.88
2023-01-21T19:20:49.048Z,62.10
2023-01-21T19:23:20.464Z,64.88
2023-01-21T19:25:56.627Z,58.15
2023-01-21T19:28:27.932Z,71.82
2023-01-21T19:30:57.641Z,70.68
2023-01-21T19:33:28.331Z,59.65
2023-01-21T19:36:07.091Z,50.72
2023-01-21T19:38:36.847Z,46.45
2023-01-21T19:41:07.215Z,52.08
2023-01-21T19:43:37.296Z,47.90
2023-01-21T19:46:13.941Z,51.88
2023-01-21T19:48:44.288Z,51.13
2023-01-21T19:51:14.982Z,53.60
2023-01-21T19:53:44.888Z,57.50
2023-01-21T19:56:19.372Z,51.78
2023-01-21T19:58:50.612Z,54.90
2023-01-21T20:01:20.512Z,52.75
2023-01-21T20:03:59.674Z,54.88
2023-01-21T20:06:36.886Z,47.08
2023-01-21T20:09:07.237Z,50.13
2023-01-21T20:11:37.145Z,48.65
2023-01-21T20:14:07.041Z,49.58
2023-01-21T20:16:38.681Z,48.08
2023-01-21T20:19:11.402Z,59.75
2023-01-21T20:21:54.685Z,50.13
2023-01-21T20:24:31.813Z,58.53
2023-01-21T20:27:02.927Z,56.33
2023-01-21T20:29:33.724Z,53.25
2023-01-21T20:32:03.632Z,53.00
2023-01-21T20:34:34.540Z,46.08
2023-01-21T20:37:04.422Z,45.28
2023-01-21T20:39:34.375Z,39.75
2023-01-21T20:42:04.116Z,46.45
2023-01-21T20:44:34.209Z,43.40
2023-01-21T20:47:04.430Z,41.03
2023-01-21T20:49:34.189Z,43.67
2023-01-21T20:52:04.014Z,42.45
2023-01-21T20:54:33.742Z,49.00
2023-01-21T20:57:03.627Z,48.13
2023-01-21T20:59:33.459Z,58.42
2023-01-21T21:02:03.448Z,49.80
2023-01-21T21:04:33.267Z,52.22
2023-01-21T21:07:03.223Z,52.33
2023-01-21T21:09:37.972Z,44.72
2023-01-21T21:12:07.875Z,46.05
2023-01-21T21:14:37.711Z,50.20
2023-01-21T21:17:12.060Z,82.40
2023-01-21T21:19:41.975Z,73.13
2023-01-21T21:22:11.770Z,84.85
2023-01-21T21:24:41.744Z,89.35
2023-01-21T21:27:14.120Z,81.32
2023-01-21T21:29:44.562Z,87.22
2023-01-21T21:32:15.709Z,84.80
2023-01-21T21:34:45.496Z,93.80
2023-01-21T21:37:16.407Z,97.43
2023-01-21T21:39:46.167Z,91.43
2023-01-21T21:42:36.437Z,91.53
2023-01-21T21:45:06.454Z,91.82
2023-01-21T21:47:55.922Z,89.72
2023-01-21T21:50:25.808Z,91.35
2023-01-21T21:52:55.563Z,93.93
2023-01-21T21:55:25.307Z,87.22
2023-01-21T21:57:55.048Z,79.80
2023-01-21T22:00:25.084Z,74.32
2023-01-21T22:02:54.917Z,82.47
2023-01-21T22:05:24.795Z,91.68
2023-01-21T22:07:54.581Z,83.50
2023-01-21T22:10:24.509Z,76.03
2023-01-21T22:12:54.318Z,75.32
2023-01-21T22:15:24.205Z,64.25
2023-01-21T22:17:54.023Z,55.10
2023-01-21T22:20:23.828Z,65.65
2023-01-21T22:22:53.545Z,61.00
2023-01-21T22:25:23.603Z,55.20
2023-01-21T22:27:53.285Z,57.97
2023-01-21T22:30:24.031Z,55.92
2023-01-21T22:32:54.024Z,52.38
2023-01-21T22:35:23.743Z,59.42
2023-01-21T22:37:53.578Z,56.35
2023-01-21T22:40:23.575Z,52.78
2023-01-21T22:42:53.577Z,50.47
2023-01-21T22:45:23.750Z,50.08
2023-01-21T22:47:53.814Z,46.63
2023-01-21T22:50:23.607Z,51.95
2023-01-21T22:52:53.427Z,67.85
2023-01-21T22:55:23.389Z,66.13
2023-01-21T22:57:53.219Z,67.97
2023-01-21T23:00:40.251Z,72.60
2023-01-21T23:03:11.570Z,75.03
2023-01-21T23:05:41.617Z,71.43
2023-01-21T23:08:11.326Z,65.93
2023-01-21T23:10:44.249Z,83.03
2023-01-21T23:13:18.262Z,74.80
2023-01-21T23:15:49.422Z,73.30
2023-01-21T23:18:19.355Z,69.57
2023-01-21T23:20:49.193Z,76.30
2023-01-21T23:23:19.175Z,66.32
2023-01-21T23:25:49.791Z,67.28
2023-01-21T23:28:19.888Z,58.30
2023-01-21T23:30:50.468Z,61.55
2023-01-21T23:33:20.223Z,67.78
2023-01-21T23:35:57.819Z,63.25
2023-01-21T23:38:27.752Z,68.65
2023-01-21T23:40:58.405Z,61.53
2023-01-21T23:43:31.275Z,64.55
2023-01-21T23:46:01.383Z,61.15
2023-01-21T23:48:31.670Z,57.60
2023-01-21T23:51:09.349Z,64.53
2023-01-21T23:53:39.331Z,53.35
2023-01-21T23:56:16.451Z,55.63
2023-01-21T23:58:46.450Z,49.47
